sensor_id;sensor_type;location;lat;lon;timestamp;pressure;altitude;pressure_sealevel;temperature;humidity
27643;BME280;15053;48.618;10.024;2022-07-23T00:00:16;94501.75;;;23.54;55.74
27643;BME280;15053;48.618;10.024;2022-07-23T00:02:43;94497.84;;;23.44;55.83
27643;BME280;15053;48.618;10.024;2022-07-23T00:05:11;94498.84;;;23.36;56.29
27643;BME280;15053;48.618;10.024;2022-07-23T00:07:38;94494.56;;;23.28;56.25
27643;BME280;15053;48.618;10.024;2022-07-23T00:10:06;94473.63;;;23.23;56.21
27643;BME280;15053;48.618;10.024;2022-07-23T00:12:34;94455.69;;;23.17;56.34
27643;BME280;15053;48.618;10.024;2022-07-23T00:15:01;94444.28;;;23.16;56.29
27643;BME280;15053;48.618;10.024;2022-07-23T00:17:29;94432.47;;;23.14;56.55
27643;BME280;15053;48.618;10.024;2022-07-23T00:19:55;94426.41;;;23.13;57.17
27643;BME280;15053;48.618;10.024;2022-07-23T00:22:22;94430.91;;;23.09;57.00
27643;BME280;15053;48.618;10.024;2022-07-23T00:24:49;94424.00;;;23.05;57.25
27643;BME280;15053;48.618;10.024;2022-07-23T00:27:35;94415.19;;;22.97;57.64
27643;BME280;15053;48.618;10.024;2022-07-23T00:30:02;94420.81;;;22.92;57.97
27643;BME280;15053;48.618;10.024;2022-07-23T00:32:29;94423.84;;;22.90;58.60
27643;BME280;15053;48.618;10.024;2022-07-23T00:35:19;94413.88;;;22.84;59.14
27643;BME280;15053;48.618;10.024;2022-07-23T00:37:46;94392.25;;;22.82;59.45
27643;BME280;15053;48.618;10.024;2022-07-23T00:40:14;94391.16;;;22.86;59.91
27643;BME280;15053;48.618;10.024;2022-07-23T00:42:41;94380.47;;;22.83;60.19
27643;BME280;15053;48.618;10.024;2022-07-23T00:45:08;94366.75;;;22.77;59.72
27643;BME280;15053;48.618;10.024;2022-07-23T00:47:35;94359.06;;;22.69;60.17
27643;BME280;15053;48.618;10.024;2022-07-23T00:50:04;94352.59;;;22.70;60.52
27643;BME280;15053;48.618;10.024;2022-07-23T00:52:32;94373.50;;;22.71;60.25
27643;BME280;15053;48.618;10.024;2022-07-23T00:54:59;94375.00;;;22.69;61.04
27643;BME280;15053;48.618;10.024;2022-07-23T00:57:26;94388.63;;;22.67;61.68
27643;BME280;15053;48.618;10.024;2022-07-23T00:59:55;94393.88;;;22.64;62.29
27643;BME280;15053;48.618;10.024;2022-07-23T01:02:22;94398.13;;;22.68;62.06
27643;BME280;15053;48.618;10.024;2022-07-23T01:04:49;94411.03;;;22.70;61.34
27643;BME280;15053;48.618;10.024;2022-07-23T01:07:17;94405.66;;;22.66;61.48
27643;BME280;15053;48.618;10.024;2022-07-23T01:09:45;94409.81;;;22.64;61.79
27643;BME280;15053;48.618;10.024;2022-07-23T01:12:12;94417.25;;;22.55;62.36
27643;BME280;15053;48.618;10.024;2022-07-23T01:14:39;94420.31;;;22.57;62.30
27643;BME280;15053;48.618;10.024;2022-07-23T01:17:06;94407.38;;;22.55;62.81
27643;BME280;15053;48.618;10.024;2022-07-23T01:19:32;94393.81;;;22.60;62.92
27643;BME280;15053;48.618;10.024;2022-07-23T01:22:02;94407.50;;;22.62;63.30
27643;BME280;15053;48.618;10.024;2022-07-23T01:24:29;94403.63;;;22.56;63.72
27643;BME280;15053;48.618;10.024;2022-07-23T01:27:00;94425.63;;;22.57;63.89
27643;BME280;15053;48.618;10.024;2022-07-23T01:29:26;94427.88;;;22.55;63.46
27643;BME280;15053;48.618;10.024;2022-07-23T01:31:54;94430.94;;;22.57;63.19
27643;BME280;15053;48.618;10.024;2022-07-23T01:34:21;94429.81;;;22.58;63.48
27643;BME280;15053;48.618;10.024;2022-07-23T01:36:48;94424.91;;;22.60;63.22
27643;BME280;15053;48.618;10.024;2022-07-23T01:39:16;94426.44;;;22.61;63.25
27643;BME280;15053;48.618;10.024;2022-07-23T01:41:43;94417.78;;;22.64;63.20
27643;BME280;15053;48.618;10.024;2022-07-23T01:44:13;94423.78;;;22.61;63.66
27643;BME280;15053;48.618;10.024;2022-07-23T01:46:42;94421.03;;;22.54;64.11
27643;BME280;15053;48.618;10.024;2022-07-23T01:49:09;94416.44;;;22.51;64.34
27643;BME280;15053;48.618;10.024;2022-07-23T01:51:54;94412.97;;;22.47;64.61
27643;BME280;15053;48.618;10.024;2022-07-23T01:54:34;94398.94;;;22.46;65.10
27643;BME280;15053;48.618;10.024;2022-07-23T01:57:04;94389.81;;;22.47;65.51
27643;BME280;15053;48.618;10.024;2022-07-23T01:59:31;94375.34;;;22.41;66.15
27643;BME280;15053;48.618;10.024;2022-07-23T02:01:58;94384.03;;;22.38;66.36
27643;BME280;15053;48.618;10.024;2022-07-23T02:04:25;94379.81;;;22.37;66.56
27643;BME280;15053;48.618;10.024;2022-07-23T02:06:53;94381.38;;;22.38;66.81
27643;BME280;15053;48.618;10.024;2022-07-23T02:09:20;94382.47;;;22.37;66.60
27643;BME280;15053;48.618;10.024;2022-07-23T02:11:46;94379.38;;;22.31;66.60
27643;BME280;15053;48.618;10.024;2022-07-23T02:14:13;94378.03;;;22.18;67.01
27643;BME280;15053;48.618;10.024;2022-07-23T02:16:40;94378.59;;;22.05;67.44
27643;BME280;15053;48.618;10.024;2022-07-23T02:19:07;94376.56;;;21.98;67.58
27643;BME280;15053;48.618;10.024;2022-07-23T02:21:35;94366.56;;;21.88;67.33
27643;BME280;15053;48.618;10.024;2022-07-23T02:24:03;94365.03;;;21.87;67.66
27643;BME280;15053;48.618;10.024;2022-07-23T02:26:30;94349.78;;;21.84;67.77
27643;BME280;15053;48.618;10.024;2022-07-23T02:29:04;94357.84;;;21.88;68.16
27643;BME280;15053;48.618;10.024;2022-07-23T02:31:32;94372.69;;;21.92;67.96
27643;BME280;15053;48.618;10.024;2022-07-23T02:33:59;94370.03;;;21.92;68.13
27643;BME280;15053;48.618;10.024;2022-07-23T02:36:26;94377.19;;;21.88;67.91
27643;BME280;15053;48.618;10.024;2022-07-23T02:38:53;94396.53;;;21.89;67.43
27643;BME280;15053;48.618;10.024;2022-07-23T02:41:20;94403.28;;;21.86;67.19
27643;BME280;15053;48.618;10.024;2022-07-23T02:43:47;94408.44;;;21.79;66.83
27643;BME280;15053;48.618;10.024;2022-07-23T02:46:14;94409.81;;;21.69;66.87
27643;BME280;15053;48.618;10.024;2022-07-23T02:48:42;94406.66;;;21.64;67.22
27643;BME280;15053;48.618;10.024;2022-07-23T02:51:08;94405.00;;;21.56;67.61
27643;BME280;15053;48.618;10.024;2022-07-23T02:53:45;94404.16;;;21.52;68.27
27643;BME280;15053;48.618;10.024;2022-07-23T02:56:12;94408.28;;;21.49;68.63
27643;BME280;15053;48.618;10.024;2022-07-23T02:58:41;94378.41;;;21.30;68.91
27643;BME280;15053;48.618;10.024;2022-07-23T03:01:07;94413.81;;;21.41;69.56
27643;BME280;15053;48.618;10.024;2022-07-23T03:03:34;94418.28;;;21.37;69.54
27643;BME280;15053;48.618;10.024;2022-07-23T03:06:01;94426.88;;;21.30;69.86
27643;BME280;15053;48.618;10.024;2022-07-23T03:08:29;94426.28;;;21.21;70.33
27643;BME280;15053;48.618;10.024;2022-07-23T03:10:55;94425.13;;;21.18;70.79
27643;BME280;15053;48.618;10.024;2022-07-23T03:13:22;94423.31;;;21.23;70.94
27643;BME280;15053;48.618;10.024;2022-07-23T03:15:49;94421.06;;;21.25;70.48
27643;BME280;15053;48.618;10.024;2022-07-23T03:18:15;94418.84;;;21.27;70.47
27643;BME280;15053;48.618;10.024;2022-07-23T03:20:43;94412.84;;;21.30;70.81
27643;BME280;15053;48.618;10.024;2022-07-23T03:23:10;94408.31;;;21.30;70.95
27643;BME280;15053;48.618;10.024;2022-07-23T03:25:37;94419.69;;;21.31;70.89
27643;BME280;15053;48.618;10.024;2022-07-23T03:28:04;94415.16;;;21.31;70.57
27643;BME280;15053;48.618;10.024;2022-07-23T03:30:30;94413.69;;;21.34;70.69
27643;BME280;15053;48.618;10.024;2022-07-23T03:32:57;94412.16;;;21.33;70.54
27643;BME280;15053;48.618;10.024;2022-07-23T03:35:24;94404.47;;;21.28;70.93
27643;BME280;15053;48.618;10.024;2022-07-23T03:38:08;94408.25;;;21.27;70.91
27643;BME280;15053;48.618;10.024;2022-07-23T03:40:36;94405.09;;;21.21;71.48
27643;BME280;15053;48.618;10.024;2022-07-23T03:43:02;94419.28;;;21.29;71.46
27643;BME280;15053;48.618;10.024;2022-07-23T03:45:29;94414.72;;;21.29;71.31
27643;BME280;15053;48.618;10.024;2022-07-23T03:47:56;94422.34;;;21.31;70.93
27643;BME280;15053;48.618;10.024;2022-07-23T03:50:23;94418.13;;;21.30;71.22
27643;BME280;15053;48.618;10.024;2022-07-23T03:52:50;94406.03;;;21.29;71.05
27643;BME280;15053;48.618;10.024;2022-07-23T03:55:17;94399.19;;;21.28;70.94
27643;BME280;15053;48.618;10.024;2022-07-23T03:57:44;94390.47;;;21.27;70.77
27643;BME280;15053;48.618;10.024;2022-07-23T04:00:12;94389.97;;;21.22;71.08
27643;BME280;15053;48.618;10.024;2022-07-23T04:02:40;94399.09;;;21.24;71.18
27643;BME280;15053;48.618;10.024;2022-07-23T04:05:09;94404.06;;;21.26;71.15
27643;BME280;15053;48.618;10.024;2022-07-23T04:07:36;94406.38;;;21.27;71.35
27643;BME280;15053;48.618;10.024;2022-07-23T04:10:05;94395.69;;;21.24;71.37
27643;BME280;15053;48.618;10.024;2022-07-23T04:12:31;94400.72;;;21.29;70.78
27643;BME280;15053;48.618;10.024;2022-07-23T04:14:59;94401.84;;;21.28;70.76
27643;BME280;15053;48.618;10.024;2022-07-23T04:17:25;94403.31;;;21.25;70.67
27643;BME280;15053;48.618;10.024;2022-07-23T04:19:53;94405.19;;;21.25;70.74
27643;BME280;15053;48.618;10.024;2022-07-23T04:22:22;94402.91;;;21.23;70.61
27643;BME280;15053;48.618;10.024;2022-07-23T04:24:49;94404.41;;;21.24;70.53
27643;BME280;15053;48.618;10.024;2022-07-23T04:27:18;94403.31;;;21.25;70.30
27643;BME280;15053;48.618;10.024;2022-07-23T04:29:45;94401.84;;;21.28;70.42
27643;BME280;15053;48.618;10.024;2022-07-23T04:32:13;94399.81;;;21.21;70.41
27643;BME280;15053;48.618;10.024;2022-07-23T04:34:40;94399.88;;;21.25;70.49
27643;BME280;15053;48.618;10.024;2022-07-23T04:37:07;94402.13;;;21.23;70.72
27643;BME280;15053;48.618;10.024;2022-07-23T04:39:35;94410.34;;;21.17;71.14
27643;BME280;15053;48.618;10.024;2022-07-23T04:42:02;94409.63;;;21.21;71.29
27643;BME280;15053;48.618;10.024;2022-07-23T04:44:30;94413.41;;;21.20;71.34
27643;BME280;15053;48.618;10.024;2022-07-23T04:46:58;94415.22;;;21.15;71.33
27643;BME280;15053;48.618;10.024;2022-07-23T04:49:25;94409.16;;;21.15;71.48
27643;BME280;15053;48.618;10.024;2022-07-23T04:51:54;94409.59;;;21.17;71.33
27643;BME280;15053;48.618;10.024;2022-07-23T04:54:20;94398.28;;;21.20;71.30
27643;BME280;15053;48.618;10.024;2022-07-23T04:56:47;94392.34;;;21.27;71.12
27643;BME280;15053;48.618;10.024;2022-07-23T04:59:14;94378.41;;;21.30;70.96
27643;BME280;15053;48.618;10.024;2022-07-23T05:01:42;94385.66;;;21.33;70.69
27643;BME280;15053;48.618;10.024;2022-07-23T05:04:10;94394.38;;;21.33;70.66
27643;BME280;15053;48.618;10.024;2022-07-23T05:06:37;94404.19;;;21.33;70.92
27643;BME280;15053;48.618;10.024;2022-07-23T05:09:04;94409.91;;;21.35;70.91
27643;BME280;15053;48.618;10.024;2022-07-23T05:11:31;94429.31;;;21.39;70.70
27643;BME280;15053;48.618;10.024;2022-07-23T05:13:57;94431.97;;;21.39;70.66
27643;BME280;15053;48.618;10.024;2022-07-23T05:16:24;94443.38;;;21.43;70.40
27643;BME280;15053;48.618;10.024;2022-07-23T05:18:55;94432.03;;;21.42;70.56
27643;BME280;15053;48.618;10.024;2022-07-23T05:21:22;94432.50;;;21.48;70.41
27643;BME280;15053;48.618;10.024;2022-07-23T05:23:49;94425.78;;;21.54;70.65
27643;BME280;15053;48.618;10.024;2022-07-23T05:26:15;94421.03;;;21.63;70.39
27643;BME280;15053;48.618;10.024;2022-07-23T05:28:42;94419.63;;;21.69;69.98
27643;BME280;15053;48.618;10.024;2022-07-23T05:31:15;94423.47;;;21.71;69.57
27643;BME280;15053;48.618;10.024;2022-07-23T05:33:42;94421.88;;;21.67;69.35
27643;BME280;15053;48.618;10.024;2022-07-23T05:36:09;94425.63;;;21.66;69.33
27643;BME280;15053;48.618;10.024;2022-07-23T05:38:43;94433.66;;;21.69;68.85
27643;BME280;15053;48.618;10.024;2022-07-23T05:41:10;94447.41;;;21.75;68.94
27643;BME280;15053;48.618;10.024;2022-07-23T05:43:37;94447.03;;;21.76;68.91
27643;BME280;15053;48.618;10.024;2022-07-23T05:46:08;94455.34;;;21.75;68.87
27643;BME280;15053;48.618;10.024;2022-07-23T05:48:38;94443.97;;;21.74;69.41
27643;BME280;15053;48.618;10.024;2022-07-23T05:51:21;94447.19;;;21.84;69.43
27643;BME280;15053;48.618;10.024;2022-07-23T05:53:49;94454.97;;;21.96;69.50
27643;BME280;15053;48.618;10.024;2022-07-23T05:56:20;94448.34;;;22.05;68.91
27643;BME280;15053;48.618;10.024;2022-07-23T05:58:47;94449.84;;;22.06;68.64
27643;BME280;15053;48.618;10.024;2022-07-23T06:01:16;94432.41;;;22.05;68.60
27643;BME280;15053;48.618;10.024;2022-07-23T06:03:53;94447.34;;;22.13;68.04
27643;BME280;15053;48.618;10.024;2022-07-23T06:06:30;94440.88;;;22.14;67.55
27643;BME280;15053;48.618;10.024;2022-07-23T06:08:57;94443.53;;;22.14;67.36
27643;BME280;15053;48.618;10.024;2022-07-23T06:11:24;94448.09;;;22.14;67.00
27643;BME280;15053;48.618;10.024;2022-07-23T06:13:50;94440.84;;;22.11;66.46
27643;BME280;15053;48.618;10.024;2022-07-23T06:16:20;94447.03;;;22.18;66.55
27643;BME280;15053;48.618;10.024;2022-07-23T06:18:47;94435.81;;;22.28;65.97
27643;BME280;15053;48.618;10.024;2022-07-23T06:21:14;94445.84;;;22.39;65.66
27643;BME280;15053;48.618;10.024;2022-07-23T06:24:01;94455.84;;;22.49;65.01
27643;BME280;15053;48.618;10.024;2022-07-23T06:26:28;94455.59;;;22.57;64.87
27643;BME280;15053;48.618;10.024;2022-07-23T06:28:54;94457.59;;;22.64;64.13
27643;BME280;15053;48.618;10.024;2022-07-23T06:31:21;94460.78;;;22.73;64.34
27643;BME280;15053;48.618;10.024;2022-07-23T06:33:48;94448.78;;;22.82;63.68
27643;BME280;15053;48.618;10.024;2022-07-23T06:36:14;94449.72;;;22.97;63.31
27643;BME280;15053;48.618;10.024;2022-07-23T06:38:41;94447.97;;;23.08;62.42
27643;BME280;15053;48.618;10.024;2022-07-23T06:41:10;94442.06;;;23.18;61.65
27643;BME280;15053;48.618;10.024;2022-07-23T06:43:37;94438.69;;;23.25;60.90
27643;BME280;15053;48.618;10.024;2022-07-23T06:46:07;94442.56;;;23.31;60.23
27643;BME280;15053;48.618;10.024;2022-07-23T06:48:33;94441.47;;;23.35;59.85
27643;BME280;15053;48.618;10.024;2022-07-23T06:51:02;94448.84;;;23.45;59.65
27643;BME280;15053;48.618;10.024;2022-07-23T06:53:29;94439.81;;;23.54;59.22
27643;BME280;15053;48.618;10.024;2022-07-23T06:55:56;94436.84;;;23.59;59.17
27643;BME280;15053;48.618;10.024;2022-07-23T06:58:22;94433.47;;;23.65;58.67
27643;BME280;15053;48.618;10.024;2022-07-23T07:00:49;94435.84;;;23.74;58.35
27643;BME280;15053;48.618;10.024;2022-07-23T07:03:17;94434.78;;;23.82;58.21
27643;BME280;15053;48.618;10.024;2022-07-23T07:05:44;94430.72;;;23.91;58.11
27643;BME280;15053;48.618;10.024;2022-07-23T07:08:11;94425.84;;;24.00;57.66
27643;BME280;15053;48.618;10.024;2022-07-23T07:10:37;94432.00;;;24.08;57.42
27643;BME280;15053;48.618;10.024;2022-07-23T07:13:04;94432.88;;;24.19;57.62
27643;BME280;15053;48.618;10.024;2022-07-23T07:15:31;94434.47;;;24.27;56.60
27643;BME280;15053;48.618;10.024;2022-07-23T07:17:57;94427.31;;;24.38;56.57
27643;BME280;15053;48.618;10.024;2022-07-23T07:20:24;94430.03;;;24.45;55.93
27643;BME280;15053;48.618;10.024;2022-07-23T07:22:50;94449.91;;;24.58;56.13
27643;BME280;15053;48.618;10.024;2022-07-23T07:25:17;94460.63;;;24.65;55.23
27643;BME280;15053;48.618;10.024;2022-07-23T07:27:44;94464.44;;;24.68;55.46
27643;BME280;15053;48.618;10.024;2022-07-23T07:30:11;94474.72;;;24.70;55.29
27643;BME280;15053;48.618;10.024;2022-07-23T07:32:39;94475.91;;;24.76;55.14
27643;BME280;15053;48.618;10.024;2022-07-23T07:35:24;94485.50;;;24.80;55.71
27643;BME280;15053;48.618;10.024;2022-07-23T07:37:50;94485.50;;;24.84;54.57
27643;BME280;15053;48.618;10.024;2022-07-23T07:40:18;94494.22;;;24.77;54.04
27643;BME280;15053;48.618;10.024;2022-07-23T07:42:49;94494.97;;;24.78;54.13
27643;BME280;15053;48.618;10.024;2022-07-23T07:45:16;94493.78;;;24.75;55.39
27643;BME280;15053;48.618;10.024;2022-07-23T07:47:43;94488.16;;;24.80;55.01
27643;BME280;15053;48.618;10.024;2022-07-23T07:50:10;94500.47;;;24.99;54.60
27643;BME280;15053;48.618;10.024;2022-07-23T07:52:38;94509.69;;;25.12;55.21
27643;BME280;15053;48.618;10.024;2022-07-23T07:55:06;94509.31;;;25.17;53.76
27643;BME280;15053;48.618;10.024;2022-07-23T07:57:35;94517.72;;;25.19;53.32
27643;BME280;15053;48.618;10.024;2022-07-23T08:00:03;94519.63;;;25.22;53.09
27643;BME280;15053;48.618;10.024;2022-07-23T08:02:52;94528.03;;;25.20;52.90
27643;BME280;15053;48.618;10.024;2022-07-23T08:05:24;94528.38;;;25.19;52.78
27643;BME280;15053;48.618;10.024;2022-07-23T08:07:55;94518.06;;;25.14;52.79
27643;BME280;15053;48.618;10.024;2022-07-23T08:10:23;94523.81;;;25.16;53.23
27643;BME280;15053;48.618;10.024;2022-07-23T08:12:52;94526.44;;;25.12;53.71
27643;BME280;15053;48.618;10.024;2022-07-23T08:15:21;94515.81;;;25.19;52.92
27643;BME280;15053;48.618;10.024;2022-07-23T08:17:48;94506.38;;;25.36;53.63
27643;BME280;15053;48.618;10.024;2022-07-23T08:20:18;94517.53;;;25.52;52.69
27643;BME280;15053;48.618;10.024;2022-07-23T08:25:20;94512.66;;;25.72;51.00
27643;BME280;15053;48.618;10.024;2022-07-23T08:27:48;94499.31;;;25.72;50.79
27643;BME280;15053;48.618;10.024;2022-07-23T08:30:16;94498.59;;;25.78;50.31
27643;BME280;15053;48.618;10.024;2022-07-23T08:33:02;94494.41;;;25.81;50.87
27643;BME280;15053;48.618;10.024;2022-07-23T08:35:34;94509.28;;;25.89;50.29
27643;BME280;15053;48.618;10.024;2022-07-23T08:38:04;94512.38;;;26.02;49.87
27643;BME280;15053;48.618;10.024;2022-07-23T08:40:33;94508.94;;;25.98;50.34
27643;BME280;15053;48.618;10.024;2022-07-23T08:43:13;94512.38;;;26.02;49.46
27643;BME280;15053;48.618;10.024;2022-07-23T08:45:45;94520.06;;;26.14;49.52
27643;BME280;15053;48.618;10.024;2022-07-23T08:48:17;94523.13;;;26.16;49.73
27643;BME280;15053;48.618;10.024;2022-07-23T08:50:50;94509.34;;;26.07;49.60
27643;BME280;15053;48.618;10.024;2022-07-23T08:53:18;94524.66;;;26.20;50.47
27643;BME280;15053;48.618;10.024;2022-07-23T08:55:48;94518.53;;;26.16;49.11
27643;BME280;15053;48.618;10.024;2022-07-23T08:58:16;94524.59;;;26.03;49.20
27643;BME280;15053;48.618;10.024;2022-07-23T09:00:44;94517.72;;;26.02;49.77
27643;BME280;15053;48.618;10.024;2022-07-23T09:03:16;94513.13;;;25.99;50.15
27643;BME280;15053;48.618;10.024;2022-07-23T09:05:43;94507.78;;;25.99;49.84
27643;BME280;15053;48.618;10.024;2022-07-23T09:08:11;94510.06;;;25.90;50.42
27643;BME280;15053;48.618;10.024;2022-07-23T09:16:08;94502.44;;;25.92;51.25
27643;BME280;15053;48.618;10.024;2022-07-23T09:18:41;94502.09;;;26.07;51.33
27643;BME280;15053;48.618;10.024;2022-07-23T09:21:13;94504.81;;;26.25;50.98
27643;BME280;15053;48.618;10.024;2022-07-23T09:28:55;94501.41;;;26.38;50.00
27643;BME280;15053;48.618;10.024;2022-07-23T09:31:23;94494.16;;;26.46;50.17
27643;BME280;15053;48.618;10.024;2022-07-23T09:33:51;94498.75;;;26.49;49.87
27643;BME280;15053;48.618;10.024;2022-07-23T09:36:27;94496.06;;;26.46;49.60
27643;BME280;15053;48.618;10.024;2022-07-23T09:38:55;94499.88;;;26.48;49.96
27643;BME280;15053;48.618;10.024;2022-07-23T09:41:21;94490.72;;;26.60;49.62
27643;BME280;15053;48.618;10.024;2022-07-23T09:43:56;94496.44;;;26.69;49.43
27643;BME280;15053;48.618;10.024;2022-07-23T09:46:25;94500.28;;;26.64;48.96
27643;BME280;15053;48.618;10.024;2022-07-23T09:48:56;94496.09;;;26.56;48.37
27643;BME280;15053;48.618;10.024;2022-07-23T09:51:23;94491.09;;;26.51;48.56
27643;BME280;15053;48.618;10.024;2022-07-23T09:54:04;94488.06;;;26.49;48.84
27643;BME280;15053;48.618;10.024;2022-07-23T09:56:32;94500.25;;;26.43;48.95
27643;BME280;15053;48.618;10.024;2022-07-23T09:58:59;94485.38;;;26.31;48.86
27643;BME280;15053;48.618;10.024;2022-07-23T10:01:32;94493.41;;;26.56;50.01
27643;BME280;15053;48.618;10.024;2022-07-23T10:04:01;94501.06;;;26.79;49.88
27643;BME280;15053;48.618;10.024;2022-07-23T10:07:08;94498.75;;;27.02;48.83
27643;BME280;15053;48.618;10.024;2022-07-23T10:09:55;94502.94;;;27.07;48.26
27643;BME280;15053;48.618;10.024;2022-07-23T10:12:44;94496.44;;;27.01;47.69
27643;BME280;15053;48.618;10.024;2022-07-23T10:15:20;94492.28;;;26.89;47.26
27643;BME280;15053;48.618;10.024;2022-07-23T10:17:48;94507.16;;;26.79;48.38
27643;BME280;15053;48.618;10.024;2022-07-23T10:20:15;94500.66;;;26.66;48.68
27643;BME280;15053;48.618;10.024;2022-07-23T10:22:54;94499.88;;;26.62;48.44
27643;BME280;15053;48.618;10.024;2022-07-23T10:25:32;94506.78;;;26.56;48.64
27643;BME280;15053;48.618;10.024;2022-07-23T10:28:05;94502.56;;;26.55;48.95
27643;BME280;15053;48.618;10.024;2022-07-23T10:31:13;94505.22;;;26.52;49.08
27643;BME280;15053;48.618;10.024;2022-07-23T10:36:53;94497.97;;;26.42;49.52
27643;BME280;15053;48.618;10.024;2022-07-23T10:42:11;94496.81;;;26.71;49.29
27643;BME280;15053;48.618;10.024;2022-07-23T10:44:48;94489.19;;;26.69;48.54
27643;BME280;15053;48.618;10.024;2022-07-23T10:47:35;94494.91;;;26.71;48.82
27643;BME280;15053;48.618;10.024;2022-07-23T10:50:19;94499.53;;;26.78;48.61
27643;BME280;15053;48.618;10.024;2022-07-23T10:57:58;94478.88;;;26.92;49.07
27643;BME280;15053;48.618;10.024;2022-07-23T11:00:26;94477.66;;;27.32;48.93
27643;BME280;15053;48.618;10.024;2022-07-23T11:02:54;94484.88;;;27.49;47.86
27643;BME280;15053;48.618;10.024;2022-07-23T11:05:30;94488.56;;;27.84;47.58
27643;BME280;15053;48.618;10.024;2022-07-23T11:10:38;94485.78;;;28.01;46.33
27643;BME280;15053;48.618;10.024;2022-07-23T11:24:04;94481.34;;;28.39;45.74
27643;BME280;15053;48.618;10.024;2022-07-23T11:26:43;94487.66;;;28.15;46.34
27643;BME280;15053;48.618;10.024;2022-07-23T11:31:52;94499.25;;;27.84;47.08
27643;BME280;15053;48.618;10.024;2022-07-23T11:37:09;94473.38;;;27.60;46.90
27643;BME280;15053;48.618;10.024;2022-07-23T11:39:37;94464.97;;;27.58;47.30
27643;BME280;15053;48.618;10.024;2022-07-23T11:42:06;94463.25;;;27.95;47.43
27643;BME280;15053;48.618;10.024;2022-07-23T11:44:36;94461.22;;;28.21;47.89
27643;BME280;15053;48.618;10.024;2022-07-23T11:47:07;94467.41;;;28.58;46.65
27643;BME280;15053;48.618;10.024;2022-07-23T11:49:35;94457.06;;;28.64;46.11
27643;BME280;15053;48.618;10.024;2022-07-23T11:52:14;94462.75;;;29.10;44.93
27643;BME280;15053;48.618;10.024;2022-07-23T11:55:02;94453.56;;;29.45;43.94
27643;BME280;15053;48.618;10.024;2022-07-23T11:57:36;94457.38;;;29.78;42.69
27643;BME280;15053;48.618;10.024;2022-07-23T12:02:39;94441.03;;;29.65;42.16
27643;BME280;15053;48.618;10.024;2022-07-23T12:05:07;94448.28;;;29.68;41.90
27643;BME280;15053;48.618;10.024;2022-07-23T12:07:37;94454.44;;;29.99;41.77
27643;BME280;15053;48.618;10.024;2022-07-23T12:12:52;94450.38;;;29.54;41.43
27643;BME280;15053;48.618;10.024;2022-07-23T12:15:31;94470.72;;;29.17;42.03
27643;BME280;15053;48.618;10.024;2022-07-23T12:18:00;94469.59;;;28.78;42.67
27643;BME280;15053;48.618;10.024;2022-07-23T12:20:36;94476.69;;;28.47;43.66
27643;BME280;15053;48.618;10.024;2022-07-23T12:23:06;94479.81;;;28.38;43.49
27643;BME280;15053;48.618;10.024;2022-07-23T12:25:39;94473.22;;;28.50;43.79
27643;BME280;15053;48.618;10.024;2022-07-23T12:28:08;94485.06;;;28.56;43.99
27643;BME280;15053;48.618;10.024;2022-07-23T12:30:41;94487.41;;;28.47;44.33
27643;BME280;15053;48.618;10.024;2022-07-23T12:33:10;94480.22;;;28.40;44.56
27643;BME280;15053;48.618;10.024;2022-07-23T12:35:40;94485.19;;;28.38;44.53
27643;BME280;15053;48.618;10.024;2022-07-23T12:38:13;94484.41;;;28.41;44.99
27643;BME280;15053;48.618;10.024;2022-07-23T12:40:59;94486.47;;;28.75;44.22
27643;BME280;15053;48.618;10.024;2022-07-23T12:43:28;94479.41;;;29.32;42.89
27643;BME280;15053;48.618;10.024;2022-07-23T12:48:38;94477.59;;;29.90;41.08
27643;BME280;15053;48.618;10.024;2022-07-23T12:51:06;94475.78;;;30.10;40.08
27643;BME280;15053;48.618;10.024;2022-07-23T12:53:45;94475.72;;;30.44;39.93
27643;BME280;15053;48.618;10.024;2022-07-23T12:56:20;94475.34;;;30.88;38.95
27643;BME280;15053;48.618;10.024;2022-07-23T12:58:50;94476.59;;;31.07;38.98
27643;BME280;15053;48.618;10.024;2022-07-23T13:06:31;94473.19;;;30.79;38.76
27643;BME280;15053;48.618;10.024;2022-07-23T13:08:59;94468.25;;;31.01;38.22
27643;BME280;15053;48.618;10.024;2022-07-23T13:11:28;94485.88;;;31.25;38.20
27643;BME280;15053;48.618;10.024;2022-07-23T13:13:56;94483.44;;;31.11;37.68
27643;BME280;15053;48.618;10.024;2022-07-23T13:16:23;94487.81;;;31.02;38.20
27643;BME280;15053;48.618;10.024;2022-07-23T13:18:53;94483.28;;;31.18;37.65
27643;BME280;15053;48.618;10.024;2022-07-23T13:21:20;94486.16;;;31.31;37.48
27643;BME280;15053;48.618;10.024;2022-07-23T13:23:47;94483.38;;;31.34;36.13
27643;BME280;15053;48.618;10.024;2022-07-23T13:26:13;94481.38;;;31.38;36.76
27643;BME280;15053;48.618;10.024;2022-07-23T13:28:41;94485.44;;;31.27;36.41
27643;BME280;15053;48.618;10.024;2022-07-23T13:31:08;94476.88;;;30.89;37.68
27643;BME280;15053;48.618;10.024;2022-07-23T13:33:35;94474.38;;;31.02;37.54
27643;BME280;15053;48.618;10.024;2022-07-23T13:36:02;94475.31;;;31.15;37.70
27643;BME280;15053;48.618;10.024;2022-07-23T13:38:29;94472.38;;;31.48;36.30
27643;BME280;15053;48.618;10.024;2022-07-23T13:40:56;94473.66;;;31.80;35.56
27643;BME280;15053;48.618;10.024;2022-07-23T13:43:25;94479.81;;;31.80;35.59
27643;BME280;15053;48.618;10.024;2022-07-23T13:45:52;94479.72;;;31.84;35.13
27643;BME280;15053;48.618;10.024;2022-07-23T13:48:20;94473.94;;;32.05;35.29
27643;BME280;15053;48.618;10.024;2022-07-23T13:50:48;94483.34;;;32.33;34.71
27643;BME280;15053;48.618;10.024;2022-07-23T13:53:18;94477.78;;;32.56;34.40
27643;BME280;15053;48.618;10.024;2022-07-23T13:55:47;94481.81;;;32.80;33.38
27643;BME280;15053;48.618;10.024;2022-07-23T13:58:14;94472.28;;;32.92;33.69